Time;durP1;ratioP1;P1;durP2;ratioP2;P2;SDS_P1;SDS_P2;PMS_P1;PMS_P2;Temp;Humidity;BMP_temperature;BMP_pressure;BME280_temperature;BME280_humidity;BME280_pressure;Samples;Min_cycle;Max_cycle;Signal;HPM_P1;HPM_P2
2022/03/28 00:01:55;;;;;;;21.63;10.80;;;6.00;1.00;;;;;;5093864;28;20203;-71
2022/03/28 00:04:22;;;;;;;24.10;10.63;;;6.00;1.00;;;;;;5093477;28;20201;-71
2022/03/28 00:06:49;;;;;;;22.83;10.23;;;6.00;1.00;;;;;;5094092;28;20200;-71
2022/03/28 00:09:16;;;;;;;23.27;10.87;;;6.00;1.00;;;;;;5092617;28;20221;-71
2022/03/28 00:11:43;;;;;;;22.03;10.73;;;5.80;1.00;;;;;;5093148;28;20194;-71
2022/03/28 00:14:10;;;;;;;20.30;11.07;;;5.60;1.00;;;;;;5093838;28;20198;-71
2022/03/28 00:16:38;;;;;;;21.10;10.43;;;5.60;1.00;;;;;;5093927;28;20212;-71
2022/03/28 00:19:05;;;;;;;24.10;10.90;;;5.50;1.00;;;;;;5093046;28;20221;-71
2022/03/28 00:21:32;;;;;;;20.20;9.97;;;5.50;1.00;;;;;;5092489;28;20200;-71
2022/03/28 00:23:59;;;;;;;20.43;9.90;;;5.30;1.00;;;;;;5079512;28;20561;-71
2022/03/28 00:26:26;;;;;;;23.33;10.90;;;5.60;1.00;;;;;;5093141;28;20211;-71
2022/03/28 00:28:52;;;;;;;20.93;10.63;;;5.70;1.00;;;;;;5093148;28;20584;-71
2022/03/28 00:31:19;;;;;;;22.03;10.87;;;5.80;1.00;;;;;;5093620;28;20691;-71
2022/03/28 00:33:48;;;;;;;22.53;11.07;;;5.70;1.00;;;;;;5093310;28;20412;-71
2022/03/28 00:36:15;;;;;;;24.13;11.70;;;5.80;1.00;;;;;;5093355;28;20660;-71
2022/03/28 00:38:41;;;;;;;26.33;11.30;;;5.80;1.00;;;;;;5092266;28;20201;-71
2022/03/28 00:41:08;;;;;;;22.43;10.70;;;5.80;1.00;;;;;;5093366;28;20208;-71
2022/03/28 00:43:37;;;;;;;24.80;11.67;;;5.80;1.00;;;;;;5092761;28;20197;-71
2022/03/28 00:46:04;;;;;;;24.27;11.27;;;5.80;1.00;;;;;;5093525;28;20202;-71
2022/03/28 00:48:30;;;;;;;24.80;11.60;;;5.80;1.00;;;;;;5093129;28;20564;-71
2022/03/28 00:50:59;;;;;;;25.60;11.67;;;5.80;1.00;;;;;;5091812;28;20218;-71
2022/03/28 00:53:26;;;;;;;25.83;12.50;;;5.80;1.00;;;;;;5092397;28;20217;-71
2022/03/28 00:55:53;;;;;;;22.87;12.00;;;5.90;1.00;;;;;;5093455;28;20243;-71
2022/03/28 00:58:20;;;;;;;24.47;11.97;;;5.80;1.00;;;;;;5091542;28;20200;-71
2022/03/28 01:00:47;;;;;;;24.10;11.60;;;5.80;1.00;;;;;;5093090;28;20276;-71
2022/03/28 01:03:14;;;;;;;23.03;10.97;;;5.70;1.00;;;;;;5093091;28;20413;-71
2022/03/28 01:05:42;;;;;;;23.17;11.23;;;5.70;1.00;;;;;;5071716;28;20198;-71
2022/03/28 01:08:11;;;;;;;26.77;12.40;;;5.60;1.00;;;;;;5091591;28;20229;-71
2022/03/28 01:10:39;;;;;;;25.37;11.13;;;5.30;1.00;;;;;;5092617;28;20217;-71
2022/03/28 01:13:07;;;;;;;21.87;11.43;;;5.40;1.00;;;;;;5091231;28;20278;-71
2022/03/28 01:15:34;;;;;;;26.00;11.53;;;5.50;1.00;;;;;;5092055;28;20204;-71
2022/03/28 01:18:06;;;;;;;26.10;11.33;;;5.40;1.00;;;;;;5092408;28;20193;-71
2022/03/28 01:20:35;;;;;;;23.43;11.10;;;5.30;1.00;;;;;;5091841;28;20572;-71
2022/03/28 01:23:04;;;;;;;22.87;10.83;;;5.30;1.00;;;;;;5091806;28;20384;-71
2022/03/28 01:25:31;;;;;;;23.47;11.53;;;5.30;1.00;;;;;;5091733;28;20254;-71
2022/03/28 01:27:59;;;;;;;23.13;11.53;;;5.30;1.00;;;;;;5091475;28;20205;-71
2022/03/28 01:30:28;;;;;;;22.17;10.70;;;5.20;1.00;;;;;;5092749;28;20738;-71
2022/03/28 01:32:57;;;;;;;23.20;11.03;;;5.20;1.00;;;;;;5091779;28;20206;-71
2022/03/28 01:35:32;;;;;;;22.00;10.77;;;5.10;1.00;;;;;;5092099;28;20201;-71
2022/03/28 01:38:00;;;;;;;25.33;11.60;;;5.20;1.00;;;;;;5091186;28;20201;-71
2022/03/28 01:40:29;;;;;;;22.90;11.17;;;5.10;1.00;;;;;;5091661;28;20204;-71
2022/03/28 01:42:56;;;;;;;20.33;10.47;;;4.60;1.00;;;;;;5092401;28;20198;-71
2022/03/28 01:45:23;;;;;;;22.43;10.87;;;4.70;1.00;;;;;;5091035;28;20670;-71
2022/03/28 01:47:50;;;;;;;23.97;11.33;;;4.60;1.00;;;;;;5091659;28;20205;-71
2022/03/28 01:50:17;;;;;;;22.43;10.30;;;4.70;21.70;;;;;;5091345;28;20228;-71
2022/03/28 01:52:45;;;;;;;26.47;12.57;;;4.80;1.00;;;;;;5091728;28;20194;-71
2022/03/28 01:55:12;;;;;;;23.73;10.90;;;4.80;1.00;;;;;;5091074;28;20547;-71
2022/03/28 01:57:42;;;;;;;22.43;11.40;;;4.70;1.00;;;;;;5091485;28;20648;-71
2022/03/28 02:00:11;;;;;;;24.43;10.80;;;4.40;1.00;;;;;;5090545;28;20198;-71
2022/03/28 02:02:38;;;;;;;25.47;10.90;;;4.40;1.00;;;;;;5091668;28;20563;-71
2022/03/28 02:05:05;;;;;;;21.70;11.03;;;4.50;59.40;;;;;;5091605;28;20209;-71
2022/03/28 02:07:35;;;;;;;23.13;10.97;;;4.60;28.60;;;;;;5090708;28;20197;-71
2022/03/28 02:10:02;;;;;;;26.40;10.83;;;4.60;44.70;;;;;;5090773;28;20714;-71
2022/03/28 02:12:29;;;;;;;22.27;10.73;;;4.60;60.30;;;;;;5090945;28;20535;-72
2022/03/28 02:14:57;;;;;;;22.77;10.53;;;4.50;37.40;;;;;;5092337;28;20640;-71
2022/03/28 02:17:24;;;;;;;26.10;11.60;;;4.30;34.30;;;;;;5091253;28;20209;-71
2022/03/28 02:19:50;;;;;;;23.70;10.70;;;4.30;72.60;;;;;;5091425;28;20198;-71
2022/03/28 02:22:17;;;;;;;22.93;10.97;;;4.40;99.90;;;;;;5090652;28;20193;-71
2022/03/28 02:24:44;;;;;;;25.13;11.83;;;4.50;95.50;;;;;;5091357;28;20202;-71
2022/03/28 02:27:11;;;;;;;25.80;11.53;;;4.60;68.80;;;;;;5091147;28;20200;-71
2022/03/28 02:29:38;;;;;;;21.90;11.27;;;4.50;56.90;;;;;;5090169;28;20213;-71
2022/03/28 02:32:08;;;;;;;25.67;10.53;;;4.50;90.90;;;;;;5090931;28;20202;-71
2022/03/28 02:34:35;;;;;;;25.83;11.20;;;4.50;99.90;;;;;;5091583;28;20242;-71
2022/03/28 02:37:02;;;;;;;24.37;11.20;;;4.50;99.90;;;;;;5091723;28;20288;-71
2022/03/28 02:39:29;;;;;;;24.27;12.17;;;4.70;99.90;;;;;;5090744;28;20221;-71
2022/03/28 02:41:56;;;;;;;27.47;11.53;;;4.70;99.90;;;;;;5091731;28;20548;-71
2022/03/28 02:44:22;;;;;;;24.67;12.03;;;4.70;99.90;;;;;;5084772;28;20201;-71
2022/03/28 02:46:50;;;;;;;25.57;11.90;;;4.60;99.90;;;;;;5094664;28;20727;-71
2022/03/28 02:49:19;;;;;;;24.30;11.10;;;4.60;99.90;;;;;;5100606;28;20208;-72
2022/03/28 02:51:46;;;;;;;24.23;11.47;;;4.50;99.90;;;;;;5090581;28;20255;-71
2022/03/28 02:54:13;;;;;;;23.60;12.40;;;4.60;99.90;;;;;;5090342;28;20676;-71
2022/03/28 02:56:40;;;;;;;24.30;11.60;;;4.60;99.90;;;;;;5091041;28;20201;-71
2022/03/28 02:59:07;;;;;;;24.90;11.80;;;4.60;99.90;;;;;;5090933;28;20201;-71
2022/03/28 03:01:34;;;;;;;28.50;12.63;;;4.60;99.90;;;;;;5086985;28;20224;-71
2022/03/28 03:04:01;;;;;;;25.87;12.47;;;4.60;99.90;;;;;;5083119;28;20198;-71
2022/03/28 03:06:29;;;;;;;23.53;10.77;;;4.50;99.90;;;;;;5090233;28;20594;-71
2022/03/28 03:08:56;;;;;;;23.70;11.13;;;4.40;99.90;;;;;;5090620;28;20206;-71
2022/03/28 03:11:23;;;;;;;25.33;11.57;;;4.10;99.90;;;;;;5090682;28;20214;-71
2022/03/28 03:13:50;;;;;;;24.83;11.90;;;4.20;99.90;;;;;;5090864;28;20201;-71
2022/03/28 03:16:17;;;;;;;23.77;11.33;;;4.30;99.90;;;;;;5091362;28;20636;-71
2022/03/28 03:18:44;;;;;;;26.40;11.33;;;4.30;99.90;;;;;;5089200;28;20201;-71
2022/03/28 03:21:11;;;;;;;26.40;12.40;;;4.20;99.90;;;;;;5091229;28;20197;-72
2022/03/28 03:23:39;;;;;;;25.83;11.60;;;4.30;99.90;;;;;;5095018;28;20225;-72
2022/03/28 03:26:06;;;;;;;26.27;11.67;;;4.40;99.90;;;;;;5095202;28;20250;-72
2022/03/28 03:28:33;;;;;;;25.40;11.67;;;4.20;99.90;;;;;;5093817;28;20289;-72
2022/03/28 03:30:59;;;;;;;25.90;12.73;;;4.10;99.90;;;;;;5094347;28;20229;-72
2022/03/28 03:33:26;;;;;;;24.33;12.03;;;4.00;99.90;;;;;;5094785;28;20678;-71
2022/03/28 03:35:54;;;;;;;25.57;11.50;;;3.80;99.90;;;;;;5094734;28;20206;-71
2022/03/28 03:38:21;;;;;;;21.73;10.10;;;3.80;99.90;;;;;;5093139;28;20206;-71
2022/03/28 03:40:49;;;;;;;23.50;10.77;;;3.60;99.90;;;;;;5093887;28;20573;-72
2022/03/28 03:43:16;;;;;;;24.80;11.57;;;3.70;99.90;;;;;;5094343;28;20210;-72
2022/03/28 03:45:43;;;;;;;22.77;10.60;;;3.50;99.90;;;;;;5094247;28;20236;-72
2022/03/28 03:48:10;;;;;;;23.27;9.80;;;3.50;99.90;;;;;;5094434;28;20201;-72
2022/03/28 03:50:37;;;;;;;23.97;11.13;;;3.70;99.90;;;;;;5094208;28;20539;-71
2022/03/28 03:53:04;;;;;;;25.77;11.37;;;4.00;99.90;;;;;;5094364;28;20565;-72
2022/03/28 03:55:30;;;;;;;23.83;10.70;;;3.90;99.90;;;;;;5094877;28;20216;-72
2022/03/28 03:57:59;;;;;;;23.57;10.77;;;4.00;99.90;;;;;;5094058;28;20524;-71
2022/03/28 04:00:25;;;;;;;24.27;11.53;;;3.70;99.90;;;;;;5093455;28;20206;-71
2022/03/28 04:02:52;;;;;;;24.53;11.77;;;3.60;99.90;;;;;;5093852;28;20323;-71
2022/03/28 04:05:19;;;;;;;24.03;11.10;;;3.30;99.90;;;;;;5094383;28;20212;-71
2022/03/28 04:07:46;;;;;;;23.97;10.70;;;3.30;99.90;;;;;;5093395;28;20392;-71
2022/03/28 04:10:13;;;;;;;22.27;10.07;;;3.50;99.90;;;;;;5093859;28;20304;-71
2022/03/28 04:12:40;;;;;;;25.13;11.17;;;3.80;99.90;;;;;;5093735;28;20652;-71
2022/03/28 04:15:10;;;;;;;26.27;11.03;;;4.00;99.90;;;;;;5093462;28;20205;-71
2022/03/28 04:17:42;;;;;;;24.23;11.60;;;4.10;99.90;;;;;;5092626;28;20226;-71
2022/03/28 04:20:10;;;;;;;22.77;10.70;;;4.10;99.90;;;;;;5093750;28;20255;-71
2022/03/28 04:22:39;;;;;;;25.33;11.40;;;4.00;99.90;;;;;;5093289;28;20215;-71
2022/03/28 04:25:07;;;;;;;26.47;11.47;;;3.90;99.90;;;;;;5094178;28;20562;-71
2022/03/28 04:27:35;;;;;;;29.67;16.00;;;4.00;99.90;;;;;;5092177;28;20206;-71
2022/03/28 04:30:03;;;;;;;29.30;12.57;;;3.90;99.90;;;;;;5093857;28;20205;-71
2022/03/28 04:32:31;;;;;;;22.27;10.37;;;3.90;99.90;;;;;;5093032;28;20712;-71
2022/03/28 04:34:58;;;;;;;23.17;10.50;;;3.70;99.90;;;;;;5092692;28;20205;-71
2022/03/28 04:37:25;;;;;;;22.83;10.53;;;3.60;99.90;;;;;;5092970;28;20270;-71
2022/03/28 04:39:52;;;;;;;23.90;11.07;;;3.50;99.90;;;;;;5093121;28;20719;-71
2022/03/28 04:42:19;;;;;;;23.17;10.83;;;3.50;99.90;;;;;;5092652;28;20212;-71
2022/03/28 04:44:46;;;;;;;26.40;11.23;;;3.50;99.90;;;;;;5093010;28;20220;-71
2022/03/28 04:47:13;;;;;;;23.93;11.50;;;3.60;99.90;;;;;;5093154;28;20205;-71
2022/03/28 04:49:41;;;;;;;22.80;10.70;;;3.70;99.90;;;;;;5092328;28;20564;-71
2022/03/28 04:52:08;;;;;;;23.53;11.43;;;3.80;99.90;;;;;;5092938;28;20225;-71
2022/03/28 04:54:36;;;;;;;26.03;11.37;;;3.70;99.90;;;;;;5092747;28;20254;-71
2022/03/28 04:57:03;;;;;;;25.77;10.33;;;3.70;99.90;;;;;;5092907;28;20651;-71
2022/03/28 04:59:31;;;;;;;23.80;11.10;;;3.80;99.90;;;;;;5093151;28;20686;-71
2022/03/28 05:01:57;;;;;;;26.87;10.97;;;3.80;99.90;;;;;;5093202;28;20202;-71
2022/03/28 05:04:24;;;;;;;23.60;11.37;;;3.70;99.90;;;;;;5093493;28;20564;-71
2022/03/28 05:06:52;;;;;;;26.33;11.63;;;3.70;99.90;;;;;;5092344;28;20201;-71
2022/03/28 05:09:19;;;;;;;24.60;11.00;;;3.50;99.90;;;;;;5092365;28;20674;-71
2022/03/28 05:11:46;;;;;;;23.13;10.33;;;3.40;99.90;;;;;;5093047;28;20691;-71
2022/03/28 05:14:13;;;;;;;22.93;11.07;;;3.30;99.90;;;;;;5092020;28;20201;-71
2022/03/28 05:16:40;;;;;;;24.40;10.73;;;3.30;99.90;;;;;;5093367;28;20288;-71
2022/03/28 05:19:07;;;;;;;23.27;11.50;;;3.40;99.90;;;;;;5092361;28;20209;-71
2022/03/28 05:21:34;;;;;;;26.30;11.97;;;3.40;99.90;;;;;;5091971;28;20212;-71
2022/03/28 05:24:02;;;;;;;23.13;10.93;;;3.30;99.90;;;;;;5092202;28;20207;-71
2022/03/28 05:26:29;;;;;;;23.03;10.90;;;3.20;99.90;;;;;;5091658;28;20647;-71
2022/03/28 05:28:55;;;;;;;25.87;12.47;;;3.20;99.90;;;;;;5091816;28;20656;-71
2022/03/28 05:31:22;;;;;;;24.10;11.27;;;3.50;99.90;;;;;;5092700;28;20244;-71
2022/03/28 05:33:49;;;;;;;25.57;11.37;;;3.80;99.90;;;;;;5092412;28;20204;-71
2022/03/28 05:36:17;;;;;;;27.07;10.87;;;4.10;99.90;;;;;;5092447;28;20212;-71
2022/03/28 05:38:44;;;;;;;26.50;12.57;;;4.20;99.90;;;;;;5091125;28;20198;-71
2022/03/28 05:41:12;;;;;;;27.87;13.73;;;4.40;99.90;;;;;;5092699;28;20208;-72
2022/03/28 05:43:39;;;;;;;25.80;12.83;;;4.40;99.90;;;;;;5092585;28;20201;-71
2022/03/28 05:46:06;;;;;;;27.20;13.60;;;4.40;99.90;;;;;;5092056;28;20205;-71
2022/03/28 05:48:33;;;;;;;29.57;12.50;;;4.40;99.90;;;;;;5092120;28;20197;-71
2022/03/28 05:51:01;;;;;;;30.43;15.03;;;4.50;99.90;;;;;;5091180;28;20223;-72
2022/03/28 05:53:28;;;;;;;38.43;16.73;;;4.60;99.90;;;;;;5092148;28;20612;-71
2022/03/28 05:55:55;;;;;;;36.67;15.73;;;4.60;99.90;;;;;;5091441;28;20652;-71
2022/03/28 05:58:24;;;;;;;39.57;15.13;;;4.70;99.90;;;;;;5091402;28;20636;-71
2022/03/28 06:00:52;;;;;;;39.60;15.80;;;4.80;99.90;;;;;;5091232;28;20304;-71
2022/03/28 06:03:19;;;;;;;41.40;15.23;;;4.80;99.90;;;;;;5091866;28;20206;-71
2022/03/28 06:05:46;;;;;;;45.53;17.37;;;4.80;99.90;;;;;;5092284;28;20566;-71
2022/03/28 06:08:13;;;;;;;44.33;16.57;;;4.80;99.90;;;;;;5091110;28;20182;-71
2022/03/28 06:10:40;;;;;;;43.17;16.77;;;4.80;99.90;;;;;;5091721;28;20301;-71
2022/03/28 06:13:08;;;;;;;60.47;16.83;;;4.90;99.90;;;;;;5091946;28;20590;-72
2022/03/28 06:15:37;;;;;;;55.23;15.00;;;4.90;99.90;;;;;;5092559;28;20434;-72
2022/03/28 06:18:05;;;;;;;38.30;14.33;;;4.80;99.90;;;;;;5091681;28;20202;-71
2022/03/28 06:20:32;;;;;;;43.23;16.67;;;4.90;99.90;;;;;;5091981;28;20208;-72
2022/03/28 06:23:00;;;;;;;57.87;13.63;;;5.00;99.90;;;;;;5091535;28;20228;-72
2022/03/28 06:25:27;;;;;;;34.10;14.43;;;4.90;99.90;;;;;;5092459;28;20208;-71
2022/03/28 06:27:53;;;;;;;51.63;14.20;;;5.00;99.90;;;;;;5090922;28;20637;-72
2022/03/28 06:30:20;;;;;;;54.10;12.73;;;5.00;99.90;;;;;;5091397;28;20212;-72
2022/03/28 06:32:48;;;;;;;44.20;11.20;;;4.90;99.90;;;;;;5090884;28;20232;-72
2022/03/28 06:35:15;;;;;;;42.40;12.40;;;4.90;99.90;;;;;;5095211;28;20208;-72
2022/03/28 06:37:42;;;;;;;38.37;11.93;;;4.80;99.90;;;;;;5091381;28;20206;-72
2022/03/28 06:40:10;;;;;;;42.60;12.30;;;4.80;99.90;;;;;;5091998;28;20232;-72
2022/03/28 06:42:37;;;;;;;29.23;11.73;;;4.90;99.90;;;;;;5091703;28;20215;-72
2022/03/28 06:45:05;;;;;;;32.30;11.47;;;5.00;99.90;;;;;;5091346;28;20205;-72
2022/03/28 06:47:31;;;;;;;53.23;12.87;;;5.00;99.90;;;;;;5090711;28;20209;-72
2022/03/28 06:50:00;;;;;;;38.57;12.63;;;5.00;99.90;;;;;;5091826;28;20367;-72
2022/03/28 06:52:26;;;;;;;27.87;12.10;;;5.10;99.90;;;;;;5090796;28;20222;-72
2022/03/28 06:54:53;;;;;;;59.03;12.93;;;5.10;99.90;;;;;;5091867;28;20212;-72
2022/03/28 06:57:20;;;;;;;31.93;13.20;;;5.00;99.90;;;;;;5093726;28;20202;-72
2022/03/28 06:59:47;;;;;;;29.07;11.03;;;5.30;99.90;;;;;;5094422;28;20209;-72
2022/03/28 07:02:14;;;;;;;24.93;11.07;;;5.20;99.90;;;;;;5095386;28;20212;-72
2022/03/28 07:04:41;;;;;;;25.57;10.70;;;5.10;99.90;;;;;;5094406;28;20201;-72
2022/03/28 07:07:10;;;;;;;22.40;11.23;;;5.10;99.90;;;;;;5094876;28;20206;-72
2022/03/28 07:09:37;;;;;;;28.17;12.57;;;5.20;99.90;;;;;;5095312;28;20214;-72
2022/03/28 07:12:05;;;;;;;32.83;12.07;;;5.20;99.90;;;;;;5094636;28;20213;-72
2022/03/28 07:14:33;;;;;;;29.57;10.83;;;5.40;99.90;;;;;;5095698;28;20201;-72
2022/03/28 07:16:59;;;;;;;47.77;11.97;;;5.50;99.90;;;;;;5094849;28;20227;-72
2022/03/28 07:19:27;;;;;;;35.97;11.63;;;5.40;99.90;;;;;;5094612;28;20671;-72
2022/03/28 07:21:54;;;;;;;23.83;10.30;;;5.40;99.90;;;;;;5095622;28;20194;-72
2022/03/28 07:24:22;;;;;;;44.53;11.73;;;5.40;99.90;;;;;;5095936;28;20600;-72
2022/03/28 07:26:49;;;;;;;34.13;11.00;;;5.40;99.90;;;;;;5094717;28;20663;-72
2022/03/28 07:29:17;;;;;;;38.43;10.63;;;5.30;99.90;;;;;;5094706;28;20698;-72
2022/03/28 07:31:44;;;;;;;37.00;10.87;;;5.50;99.90;;;;;;5094633;28;20305;-72
2022/03/28 07:36:56;;;;;;;28.90;10.20;;;5.50;99.90;;;;;;5093723;28;20222;-72
2022/03/28 07:39:24;;;;;;;20.87;10.70;;;5.40;99.90;;;;;;5094364;28;20217;-72
2022/03/28 07:41:52;;;;;;;22.30;10.70;;;5.60;99.90;;;;;;5094220;28;20194;-72
2022/03/28 07:44:19;;;;;;;27.63;10.90;;;5.70;99.90;;;;;;5094424;28;20202;-72
2022/03/28 07:46:47;;;;;;;18.67;9.47;;;5.80;99.90;;;;;;5094975;28;20205;-72
2022/03/28 07:49:14;;;;;;;20.20;10.23;;;5.70;99.90;;;;;;5094509;28;20694;-72
2022/03/28 07:51:41;;;;;;;18.03;9.87;;;5.80;99.90;;;;;;5093997;28;20229;-72
2022/03/28 07:54:08;;;;;;;33.77;10.77;;;5.90;99.90;;;;;;5093717;28;20680;-72
2022/03/28 07:56:36;;;;;;;25.67;10.40;;;5.90;99.90;;;;;;5094178;28;20829;-71
2022/03/28 07:59:03;;;;;;;21.73;10.53;;;6.00;99.90;;;;;;5074159;28;20280;-72
2022/03/28 08:01:31;;;;;;;23.87;10.20;;;5.90;99.90;;;;;;5074170;28;20201;-72
2022/03/28 08:03:58;;;;;;;21.40;10.17;;;5.90;99.90;;;;;;5074529;28;20214;-72
2022/03/28 08:06:25;;;;;;;20.50;9.80;;;5.80;99.90;;;;;;5073954;28;20202;-72
2022/03/28 08:08:52;;;;;;;19.40;9.73;;;5.80;99.90;;;;;;5092264;28;20652;-72
2022/03/28 08:11:19;;;;;;;25.70;11.27;;;5.80;99.90;;;;;;5093950;28;20251;-72
2022/03/28 08:13:47;;;;;;;24.67;9.83;;;5.80;99.90;;;;;;5094546;28;20564;-72
2022/03/28 08:16:14;;;;;;;20.77;9.60;;;5.60;99.90;;;;;;5094136;28;20728;-72
2022/03/28 08:18:41;;;;;;;19.43;9.57;;;5.90;99.90;;;;;;5093798;28;20220;-72
2022/03/28 08:21:08;;;;;;;22.20;11.57;;;6.00;99.90;;;;;;5093681;28;20251;-72
2022/03/28 08:23:35;;;;;;;18.47;9.57;;;6.20;99.90;;;;;;5093322;28;20300;-72
2022/03/28 08:26:04;;;;;;;18.23;9.50;;;6.10;99.90;;;;;;5094342;28;20210;-72
2022/03/28 08:28:31;;;;;;;19.23;10.03;;;6.20;99.90;;;;;;5093239;28;20209;-72
2022/03/28 08:30:59;;;;;;;18.70;9.60;;;6.30;99.90;;;;;;5094172;28;20202;-72
2022/03/28 08:33:26;;;;;;;19.47;10.33;;;6.30;99.90;;;;;;5093347;28;20775;-73
2022/03/28 08:35:53;;;;;;;18.50;9.37;;;5.90;99.90;;;;;;5092923;28;20209;-72
2022/03/28 08:38:20;;;;;;;22.13;10.73;;;6.00;99.90;;;;;;5092767;28;20208;-71
2022/03/28 08:40:48;;;;;;;16.20;8.67;;;6.20;99.90;;;;;;5092977;28;20217;-71
2022/03/28 08:43:18;;;;;;;18.40;10.37;;;6.40;99.90;;;;;;5094004;28;20216;-71
2022/03/28 08:45:46;;;;;;;19.37;10.10;;;6.50;99.90;;;;;;5093234;28;20433;-71
2022/03/28 08:48:15;;;;;;;16.23;9.07;;;6.30;99.90;;;;;;5093333;28;20213;-71
2022/03/28 08:50:44;;;;;;;16.90;10.03;;;6.60;99.90;;;;;;5093561;28;20198;-73
2022/03/28 08:53:12;;;;;;;14.93;8.17;;;6.90;99.90;;;;;;5092975;28;20591;-71
2022/03/28 08:55:41;;;;;;;16.73;9.43;;;6.90;99.90;;;;;;5093739;28;20290;-71
2022/03/28 08:58:08;;;;;;;18.40;10.30;;;6.80;99.90;;;;;;5093031;28;20205;-71
2022/03/28 09:00:35;;;;;;;19.07;10.00;;;7.00;99.90;;;;;;5092425;28;20682;-71
2022/03/28 09:03:02;;;;;;;18.10;9.53;;;7.00;99.90;;;;;;5092614;28;20202;-71
2022/03/28 09:05:32;;;;;;;18.07;9.83;;;7.20;85.70;;;;;;5093333;28;20201;-71
2022/03/28 09:07:59;;;;;;;19.23;10.03;;;7.10;42.40;;;;;;5092600;28;20211;-71
2022/03/28 09:10:28;;;;;;;19.97;10.47;;;7.10;1.00;;;;;;5093300;28;20206;-71
2022/03/28 09:13:00;;;;;;;17.47;9.50;;;7.20;34.80;;;;;;5092342;28;20214;-71
2022/03/28 09:15:41;;;;;;;19.50;9.70;;;7.30;1.00;;;;;;5092045;28;20212;-71
2022/03/28 09:18:08;;;;;;;20.17;10.20;;;7.20;1.00;;;;;;5092720;28;20255;-71
2022/03/28 09:20:37;;;;;;;19.77;10.47;;;7.00;1.00;;;;;;5091110;28;20201;-71
2022/03/28 09:23:35;;;;;;;19.57;10.87;;;7.00;1.00;;;;;;5092400;28;20208;-71
2022/03/28 09:26:16;;;;;;;19.30;10.77;;;7.10;76.90;;;;;;5093072;28;20518;-71
2022/03/28 09:28:49;;;;;;;21.90;10.73;;;7.00;1.00;;;;;;5091512;28;20241;-71
2022/03/28 09:31:18;;;;;;;21.80;10.40;;;7.00;17.10;;;;;;5092045;28;20208;-71
2022/03/28 09:34:01;;;;;;;20.93;10.80;;;7.10;1.40;;;;;;5092478;28;20225;-71
2022/03/28 09:36:40;;;;;;;20.63;11.80;;;7.20;1.00;;;;;;5091437;28;20242;-71
2022/03/28 09:39:09;;;;;;;23.83;11.53;;;7.40;1.00;;;;;;5091502;28;20209;-71
2022/03/28 09:41:36;;;;;;;23.00;10.77;;;7.60;1.00;;;;;;5092550;28;20202;-71
2022/03/28 09:44:03;;;;;;;19.67;11.00;;;7.60;1.00;;;;;;5091669;28;20202;-71
2022/03/28 09:46:31;;;;;;;23.17;12.77;;;7.80;1.00;;;;;;5091957;28;20237;-71
2022/03/28 09:48:59;;;;;;;20.80;11.60;;;7.80;1.00;;;;;;5091882;28;20213;-71
2022/03/28 09:51:28;;;;;;;18.53;10.60;;;8.00;1.00;;;;;;5091929;28;20228;-71
2022/03/28 09:53:57;;;;;;;25.00;12.50;;;8.50;1.00;;;;;;5091683;28;20588;-71
2022/03/28 09:56:24;;;;;;;22.60;11.93;;;8.80;1.00;;;;;;5092494;28;20209;-72
2022/03/28 09:58:56;;;;;;;23.67;11.73;;;8.70;1.00;;;;;;5091357;28;20611;-71
2022/03/28 10:01:25;;;;;;;23.63;12.53;;;8.90;99.90;;;;;;5091292;28;20208;-71
2022/03/28 10:03:54;;;;;;;21.83;12.03;;;8.90;26.70;;;;;;5091945;28;20197;-71
2022/03/28 10:06:22;;;;;;;24.30;12.70;;;8.90;99.90;;;;;;5090871;28;20263;-72
2022/03/28 10:08:49;;;;;;;22.37;11.40;;;9.50;87.90;;;;;;5091838;28;20271;-72
2022/03/28 10:11:18;;;;;;;20.93;11.63;;;9.40;99.90;;;;;;5091714;28;20202;-72
2022/03/28 10:13:45;;;;;;;20.23;11.27;;;9.70;1.00;;;;;;5091551;28;20224;-72
2022/03/28 10:16:12;;;;;;;21.77;10.60;;;10.10;1.00;;;;;;5091336;28;20209;-72
2022/03/28 10:18:41;;;;;;;20.47;10.43;;;10.00;1.00;;;;;;5091471;28;20202;-72
2022/03/28 10:21:15;;;;;;;21.97;11.07;;;10.70;1.00;;;;;;5090895;28;20442;-72
2022/03/28 10:23:50;;;;;;;15.83;8.87;;;10.60;1.00;;;;;;5091744;28;20552;-72
2022/03/28 10:26:20;;;;;;;16.47;9.20;;;10.60;1.00;;;;;;5091637;28;20209;-72
2022/03/28 10:29:06;;;;;;;15.93;9.10;;;11.00;1.00;;;;;;5091141;28;20292;-72
2022/03/28 10:31:34;;;;;;;16.33;9.20;;;11.20;1.00;;;;;;5092429;28;20208;-72
2022/03/28 10:34:02;;;;;;;15.43;9.17;;;11.00;99.90;;;;;;5096419;28;20813;-72
2022/03/28 10:36:31;;;;;;;15.10;9.03;;;11.40;1.00;;;;;;5095575;28;20425;-72
2022/03/28 10:39:31;;;;;;;15.53;8.90;;;11.30;1.00;;;;;;5095631;28;20248;-72
2022/03/28 10:42:08;;;;;;;15.47;8.60;;;11.50;99.90;;;;;;5095590;28;20666;-72
2022/03/28 10:45:02;;;;;;;15.17;8.00;;;11.70;32.30;;;;;;5095790;28;20208;-72
2022/03/28 10:47:42;;;;;;;16.57;8.57;;;12.10;1.00;;;;;;5091929;28;20259;-72
2022/03/28 10:50:10;;;;;;;16.50;8.87;;;12.10;1.00;;;;;;5096247;28;20209;-72
2022/03/28 10:52:37;;;;;;;15.57;8.63;;;12.50;1.00;;;;;;5095699;28;20278;-72
2022/03/28 10:55:08;;;;;;;15.53;8.27;;;12.60;97.50;;;;;;5095027;28;20228;-72
2022/03/28 10:57:37;;;;;;;17.43;9.00;;;12.60;3.20;;;;;;5094269;28;20209;-72
2022/03/28 11:00:08;;;;;;;17.73;9.00;;;12.30;1.00;;;;;;5096016;28;20193;-72
2022/03/28 11:02:35;;;;;;;18.60;8.63;;;12.80;99.90;;;;;;5095210;28;20209;-73
2022/03/28 11:05:13;;;;;;;17.97;8.90;;;12.50;99.90;;;;;;5094685;28;20436;-72
2022/03/28 11:07:40;;;;;;;19.40;9.03;;;13.10;1.00;;;;;;5093980;28;20676;-73
2022/03/28 11:10:11;;;;;;;18.47;9.80;;;13.20;1.00;;;;;;5075045;28;20205;-72
2022/03/28 11:12:41;;;;;;;16.53;8.63;;;13.60;1.00;;;;;;5073784;28;20233;-74
2022/03/28 11:15:16;;;;;;;18.90;9.10;;;13.70;1.00;;;;;;5091913;28;20258;-72
2022/03/28 11:17:55;;;;;;;16.63;9.10;;;14.00;1.00;;;;;;5094167;28;20241;-73
2022/03/28 11:20:23;;;;;;;17.10;9.80;;;13.70;1.00;;;;;;5077710;28;20202;-72
2022/03/28 11:22:58;;;;;;;19.90;10.40;;;13.20;1.00;;;;;;5094445;28;20209;-73
2022/03/28 11:25:41;;;;;;;19.67;10.17;;;13.10;1.00;;;;;;5095517;28;20201;-73
2022/03/28 11:28:12;;;;;;;17.60;9.80;;;13.00;1.00;;;;;;5094457;28;20216;-73
2022/03/28 11:30:47;;;;;;;18.57;11.03;;;13.50;1.00;;;;;;5095260;28;20206;-73
2022/03/28 11:33:18;;;;;;;17.40;10.03;;;14.00;1.00;;;;;;5094092;28;20745;-73
2022/03/28 11:35:53;;;;;;;18.53;10.20;;;13.60;1.00;;;;;;5094841;28;20680;-73
2022/03/28 11:38:21;;;;;;;19.60;10.00;;;14.20;1.00;;;;;;5094432;28;20573;-73
2022/03/28 11:40:48;;;;;;;16.57;8.73;;;14.00;1.00;;;;;;5094881;28;20690;-73
2022/03/28 11:43:17;;;;;;;15.53;8.10;;;13.80;28.40;;;;;;5094021;28;20201;-73
2022/03/28 11:45:47;;;;;;;14.97;7.90;;;13.30;99.90;;;;;;5094990;28;20259;-73
2022/03/28 11:48:19;;;;;;;15.70;8.13;;;13.50;99.90;;;;;;5096334;28;20220;-73
2022/03/28 11:50:46;;;;;;;14.03;7.80;;;14.10;1.00;;;;;;5097713;28;20193;-73
2022/03/28 11:53:14;;;;;;;14.17;7.57;;;14.30;1.00;;;;;;5094351;28;20222;-73
2022/03/28 11:55:51;;;;;;;17.07;9.13;;;14.70;1.00;;;;;;5093927;28;20300;-73
2022/03/28 11:58:29;;;;;;;16.00;8.70;;;14.40;99.90;;;;;;5093536;28;20208;-71
2022/03/28 12:01:05;;;;;;;15.83;8.30;;;14.10;1.00;;;;;;5093295;28;20609;-71
2022/03/28 12:03:32;;;;;;;17.63;8.40;;;14.00;1.00;;;;;;5092345;28;20257;-71
2022/03/28 12:05:58;;;;;;;16.17;8.23;;;14.00;1.00;;;;;;5093873;28;20197;-72
2022/03/28 12:08:25;;;;;;;15.37;8.60;;;14.10;1.00;;;;;;5092438;28;20292;-71
2022/03/28 12:10:54;;;;;;;16.27;8.57;;;14.20;1.00;;;;;;5094257;28;20274;-71
2022/03/28 12:13:24;;;;;;;18.47;8.83;;;14.40;1.00;;;;;;5093177;28;20224;-71
2022/03/28 12:15:53;;;;;;;17.83;9.87;;;13.80;1.00;;;;;;5093054;28;20693;-71
2022/03/28 12:18:22;;;;;;;20.10;10.63;;;14.00;1.00;;;;;;5093179;28;20213;-71
2022/03/28 12:20:50;;;;;;;21.70;10.87;;;14.10;1.00;;;;;;5093981;28;20202;-71
2022/03/28 12:23:20;;;;;;;20.37;10.30;;;14.50;1.00;;;;;;5093430;28;20197;-72
2022/03/28 12:25:48;;;;;;;18.93;10.73;;;14.50;1.00;;;;;;5093660;28;20516;-71
2022/03/28 12:28:17;;;;;;;19.97;11.20;;;15.00;1.00;;;;;;5093248;28;20202;-72
2022/03/28 12:30:47;;;;;;;16.23;9.83;;;14.70;1.00;;;;;;5094292;28;20206;-72
2022/03/28 12:33:17;;;;;;;20.13;10.50;;;14.80;1.00;;;;;;5093366;28;20603;-72
2022/03/28 12:35:46;;;;;;;20.60;11.43;;;15.00;1.00;;;;;;5093445;28;20237;-72
2022/03/28 12:38:18;;;;;;;20.73;10.60;;;14.20;1.00;;;;;;5093660;28;20202;-71
2022/03/28 12:40:46;;;;;;;21.92;11.35;;;14.60;99.90;;;;;;5093479;28;20209;-72
2022/03/28 12:43:16;;;;;;;24.73;11.73;;;15.30;1.00;;;;;;5093389;28;20663;-71
2022/03/28 12:45:44;;;;;;;23.07;12.57;;;15.30;1.00;;;;;;5093170;28;20258;-72
2022/03/28 12:48:12;;;;;;;20.70;11.50;;;14.20;96.90;;;;;;5092404;28;20203;-72
2022/03/28 12:50:53;;;;;;;22.70;12.00;;;14.20;1.00;;;;;;5093294;28;20557;-71